sensor_id;sensor_type;location;lat;lon;timestamp;P1;durP1;ratioP1;P2;durP2;ratioP2
77117;SDS011;66072;50.238;19.228;2023-04-25T00:01:28;5.50;;;3.10;;
77117;SDS011;66072;50.238;19.228;2023-04-25T00:03:55;6.30;;;3.70;;
77117;SDS011;66072;50.238;19.228;2023-04-25T00:06:24;5.50;;;3.90;;
77117;SDS011;66072;50.238;19.228;2023-04-25T00:08:52;5.00;;;3.30;;
77117;SDS011;66072;50.238;19.228;2023-04-25T00:11:19;7.40;;;4.00;;
77117;SDS011;66072;50.238;19.228;2023-04-25T00:13:47;6.30;;;3.80;;
77117;SDS011;66072;50.238;19.228;2023-04-25T00:16:15;7.80;;;4.40;;
77117;SDS011;66072;50.238;19.228;2023-04-25T00:18:43;6.70;;;4.60;;
77117;SDS011;66072;50.238;19.228;2023-04-25T00:21:10;6.80;;;4.10;;
77117;SDS011;66072;50.238;19.228;2023-04-25T00:23:38;5.20;;;3.10;;
77117;SDS011;66072;50.238;19.228;2023-04-25T00:26:05;5.80;;;3.20;;
77117;SDS011;66072;50.238;19.228;2023-04-25T00:28:33;5.50;;;3.10;;
77117;SDS011;66072;50.238;19.228;2023-04-25T00:31:01;5.50;;;3.30;;
77117;SDS011;66072;50.238;19.228;2023-04-25T00:33:28;7.70;;;5.00;;
77117;SDS011;66072;50.238;19.228;2023-04-25T00:35:56;6.50;;;4.10;;
77117;SDS011;66072;50.238;19.228;2023-04-25T00:38:24;8.00;;;5.40;;
77117;SDS011;66072;50.238;19.228;2023-04-25T00:40:52;7.20;;;4.10;;
77117;SDS011;66072;50.238;19.228;2023-04-25T00:43:19;8.30;;;4.80;;
77117;SDS011;66072;50.238;19.228;2023-04-25T00:45:47;8.20;;;5.20;;
77117;SDS011;66072;50.238;19.228;2023-04-25T00:48:15;6.60;;;4.40;;
77117;SDS011;66072;50.238;19.228;2023-04-25T00:50:43;8.00;;;5.10;;
77117;SDS011;66072;50.238;19.228;2023-04-25T00:53:21;6.80;;;3.90;;
77117;SDS011;66072;50.238;19.228;2023-04-25T00:55:50;8.30;;;5.00;;
77117;SDS011;66072;50.238;19.228;2023-04-25T00:58:18;11.60;;;6.80;;
77117;SDS011;66072;50.238;19.228;2023-04-25T01:00:48;8.70;;;5.70;;
77117;SDS011;66072;50.238;19.228;2023-04-25T01:03:17;9.00;;;5.10;;
77117;SDS011;66072;50.238;19.228;2023-04-25T01:05:46;9.20;;;5.30;;
77117;SDS011;66072;50.238;19.228;2023-04-25T01:08:14;10.10;;;6.10;;
77117;SDS011;66072;50.238;19.228;2023-04-25T01:10:42;12.10;;;7.20;;
77117;SDS011;66072;50.238;19.228;2023-04-25T01:13:10;8.50;;;5.10;;
77117;SDS011;66072;50.238;19.228;2023-04-25T01:15:37;13.20;;;8.40;;
77117;SDS011;66072;50.238;19.228;2023-04-25T01:18:05;11.60;;;6.90;;
77117;SDS011;66072;50.238;19.228;2023-04-25T01:20:33;9.90;;;6.00;;
77117;SDS011;66072;50.238;19.228;2023-04-25T01:23:01;12.60;;;8.10;;
77117;SDS011;66072;50.238;19.228;2023-04-25T01:25:32;15.10;;;8.60;;
77117;SDS011;66072;50.238;19.228;2023-04-25T01:28:00;18.20;;;10.70;;
77117;SDS011;66072;50.238;19.228;2023-04-25T01:30:27;12.40;;;6.70;;
77117;SDS011;66072;50.238;19.228;2023-04-25T01:32:56;15.90;;;8.70;;
77117;SDS011;66072;50.238;19.228;2023-04-25T01:35:25;15.50;;;9.90;;
77117;SDS011;66072;50.238;19.228;2023-04-25T01:37:52;17.20;;;9.10;;
77117;SDS011;66072;50.238;19.228;2023-04-25T01:40:20;16.80;;;9.40;;
77117;SDS011;66072;50.238;19.228;2023-04-25T01:42:49;12.00;;;7.70;;
77117;SDS011;66072;50.238;19.228;2023-04-25T01:45:16;10.90;;;6.50;;
77117;SDS011;66072;50.238;19.228;2023-04-25T01:47:44;14.50;;;9.20;;
77117;SDS011;66072;50.238;19.228;2023-04-25T01:50:12;12.20;;;8.00;;
77117;SDS011;66072;50.238;19.228;2023-04-25T01:52:40;12.90;;;8.40;;
77117;SDS011;66072;50.238;19.228;2023-04-25T01:55:08;12.80;;;7.50;;
77117;SDS011;66072;50.238;19.228;2023-04-25T01:57:35;12.50;;;7.80;;
77117;SDS011;66072;50.238;19.228;2023-04-25T02:00:04;12.00;;;8.00;;
77117;SDS011;66072;50.238;19.228;2023-04-25T02:02:33;10.40;;;7.00;;
77117;SDS011;66072;50.238;19.228;2023-04-25T02:05:01;9.70;;;6.90;;
77117;SDS011;66072;50.238;19.228;2023-04-25T02:07:29;9.00;;;5.30;;
77117;SDS011;66072;50.238;19.228;2023-04-25T02:09:57;11.30;;;7.70;;
77117;SDS011;66072;50.238;19.228;2023-04-25T02:12:24;7.20;;;5.40;;
77117;SDS011;66072;50.238;19.228;2023-04-25T02:14:52;8.40;;;5.60;;
77117;SDS011;66072;50.238;19.228;2023-04-25T02:17:19;10.80;;;6.70;;
77117;SDS011;66072;50.238;19.228;2023-04-25T02:19:47;11.20;;;7.80;;
77117;SDS011;66072;50.238;19.228;2023-04-25T02:22:15;10.50;;;6.70;;
77117;SDS011;66072;50.238;19.228;2023-04-25T02:24:42;12.70;;;8.40;;
77117;SDS011;66072;50.238;19.228;2023-04-25T02:27:10;10.00;;;6.30;;
77117;SDS011;66072;50.238;19.228;2023-04-25T02:29:38;13.00;;;8.20;;
77117;SDS011;66072;50.238;19.228;2023-04-25T02:32:06;12.00;;;8.20;;
77117;SDS011;66072;50.238;19.228;2023-04-25T02:34:33;8.20;;;5.70;;
77117;SDS011;66072;50.238;19.228;2023-04-25T02:37:01;8.80;;;6.30;;
77117;SDS011;66072;50.238;19.228;2023-04-25T02:39:28;10.30;;;7.70;;
77117;SDS011;66072;50.238;19.228;2023-04-25T02:41:56;9.70;;;6.20;;
77117;SDS011;66072;50.238;19.228;2023-04-25T02:44:23;8.30;;;5.40;;
77117;SDS011;66072;50.238;19.228;2023-04-25T02:46:51;11.40;;;7.40;;
77117;SDS011;66072;50.238;19.228;2023-04-25T02:49:19;10.20;;;6.30;;
77117;SDS011;66072;50.238;19.228;2023-04-25T02:51:46;13.10;;;8.00;;
77117;SDS011;66072;50.238;19.228;2023-04-25T02:54:14;11.80;;;7.80;;
77117;SDS011;66072;50.238;19.228;2023-04-25T02:56:41;10.90;;;7.50;;
77117;SDS011;66072;50.238;19.228;2023-04-25T02:59:09;10.70;;;6.80;;
77117;SDS011;66072;50.238;19.228;2023-04-25T03:01:37;11.20;;;7.40;;
77117;SDS011;66072;50.238;19.228;2023-04-25T03:04:04;9.50;;;6.60;;
77117;SDS011;66072;50.238;19.228;2023-04-25T03:06:32;8.30;;;4.70;;
77117;SDS011;66072;50.238;19.228;2023-04-25T03:09:00;10.00;;;7.00;;
77117;SDS011;66072;50.238;19.228;2023-04-25T03:11:27;10.30;;;6.80;;
77117;SDS011;66072;50.238;19.228;2023-04-25T03:13:55;9.80;;;7.10;;
77117;SDS011;66072;50.238;19.228;2023-04-25T03:16:23;8.40;;;5.70;;
77117;SDS011;66072;50.238;19.228;2023-04-25T03:18:51;10.80;;;7.50;;
77117;SDS011;66072;50.238;19.228;2023-04-25T03:21:18;9.00;;;6.10;;
77117;SDS011;66072;50.238;19.228;2023-04-25T03:23:46;11.60;;;6.80;;
77117;SDS011;66072;50.238;19.228;2023-04-25T03:26:14;10.10;;;7.30;;
77117;SDS011;66072;50.238;19.228;2023-04-25T03:28:41;7.60;;;5.90;;
77117;SDS011;66072;50.238;19.228;2023-04-25T03:31:09;11.70;;;7.90;;
77117;SDS011;66072;50.238;19.228;2023-04-25T03:33:36;13.10;;;7.70;;
77117;SDS011;66072;50.238;19.228;2023-04-25T03:36:04;9.00;;;6.70;;
77117;SDS011;66072;50.238;19.228;2023-04-25T03:38:32;7.80;;;5.20;;
77117;SDS011;66072;50.238;19.228;2023-04-25T03:41:00;11.50;;;7.30;;
77117;SDS011;66072;50.238;19.228;2023-04-25T03:43:28;8.80;;;5.70;;
77117;SDS011;66072;50.238;19.228;2023-04-25T03:45:56;10.40;;;6.50;;
77117;SDS011;66072;50.238;19.228;2023-04-25T03:48:25;11.20;;;7.80;;
77117;SDS011;66072;50.238;19.228;2023-04-25T03:50:53;9.60;;;7.40;;
77117;SDS011;66072;50.238;19.228;2023-04-25T03:53:21;8.30;;;5.70;;
77117;SDS011;66072;50.238;19.228;2023-04-25T03:55:49;10.80;;;6.80;;
77117;SDS011;66072;50.238;19.228;2023-04-25T03:58:17;8.80;;;5.60;;
77117;SDS011;66072;50.238;19.228;2023-04-25T04:00:44;9.80;;;5.30;;
77117;SDS011;66072;50.238;19.228;2023-04-25T04:03:12;8.50;;;6.00;;
77117;SDS011;66072;50.238;19.228;2023-04-25T04:05:40;8.60;;;4.60;;
77117;SDS011;66072;50.238;19.228;2023-04-25T04:08:08;10.70;;;4.80;;
77117;SDS011;66072;50.238;19.228;2023-04-25T04:10:35;7.30;;;5.20;;
77117;SDS011;66072;50.238;19.228;2023-04-25T04:13:03;7.00;;;4.60;;
77117;SDS011;66072;50.238;19.228;2023-04-25T04:15:30;7.70;;;4.80;;
77117;SDS011;66072;50.238;19.228;2023-04-25T04:17:58;8.80;;;4.80;;
77117;SDS011;66072;50.238;19.228;2023-04-25T04:20:25;8.70;;;5.60;;
77117;SDS011;66072;50.238;19.228;2023-04-25T04:22:53;9.70;;;5.50;;
77117;SDS011;66072;50.238;19.228;2023-04-25T04:25:21;11.60;;;6.60;;
77117;SDS011;66072;50.238;19.228;2023-04-25T04:27:48;9.10;;;5.20;;
77117;SDS011;66072;50.238;19.228;2023-04-25T04:30:16;10.20;;;6.50;;
77117;SDS011;66072;50.238;19.228;2023-04-25T04:32:43;8.10;;;5.00;;
77117;SDS011;66072;50.238;19.228;2023-04-25T04:35:11;4.80;;;3.10;;
77117;SDS011;66072;50.238;19.228;2023-04-25T04:37:39;7.60;;;4.60;;
77117;SDS011;66072;50.238;19.228;2023-04-25T04:40:07;5.10;;;3.50;;
77117;SDS011;66072;50.238;19.228;2023-04-25T04:42:35;7.20;;;4.50;;
77117;SDS011;66072;50.238;19.228;2023-04-25T04:45:02;7.80;;;5.20;;
77117;SDS011;66072;50.238;19.228;2023-04-25T04:47:30;5.80;;;3.50;;
77117;SDS011;66072;50.238;19.228;2023-04-25T04:49:58;6.40;;;4.60;;
77117;SDS011;66072;50.238;19.228;2023-04-25T04:52:25;5.10;;;3.30;;
77117;SDS011;66072;50.238;19.228;2023-04-25T04:54:53;5.90;;;3.60;;
77117;SDS011;66072;50.238;19.228;2023-04-25T04:57:21;6.70;;;4.30;;
77117;SDS011;66072;50.238;19.228;2023-04-25T04:59:48;6.30;;;3.70;;
77117;SDS011;66072;50.238;19.228;2023-04-25T05:02:16;6.80;;;4.50;;
77117;SDS011;66072;50.238;19.228;2023-04-25T05:04:43;7.70;;;4.50;;
77117;SDS011;66072;50.238;19.228;2023-04-25T05:07:11;8.20;;;5.30;;
77117;SDS011;66072;50.238;19.228;2023-04-25T05:09:39;6.50;;;4.00;;
77117;SDS011;66072;50.238;19.228;2023-04-25T05:12:06;7.30;;;4.10;;
77117;SDS011;66072;50.238;19.228;2023-04-25T05:14:34;6.70;;;3.80;;
77117;SDS011;66072;50.238;19.228;2023-04-25T05:17:02;6.70;;;3.40;;
77117;SDS011;66072;50.238;19.228;2023-04-25T05:19:29;4.30;;;2.90;;
77117;SDS011;66072;50.238;19.228;2023-04-25T05:21:57;5.60;;;3.60;;
77117;SDS011;66072;50.238;19.228;2023-04-25T05:24:25;4.50;;;3.20;;
77117;SDS011;66072;50.238;19.228;2023-04-25T05:26:52;5.60;;;3.50;;
77117;SDS011;66072;50.238;19.228;2023-04-25T05:29:20;5.10;;;4.00;;
77117;SDS011;66072;50.238;19.228;2023-04-25T05:31:48;4.40;;;2.90;;
77117;SDS011;66072;50.238;19.228;2023-04-25T05:34:15;5.20;;;3.10;;
77117;SDS011;66072;50.238;19.228;2023-04-25T05:36:43;5.90;;;3.00;;
77117;SDS011;66072;50.238;19.228;2023-04-25T05:39:11;4.20;;;3.20;;
77117;SDS011;66072;50.238;19.228;2023-04-25T05:41:38;5.60;;;3.30;;
77117;SDS011;66072;50.238;19.228;2023-04-25T05:44:06;5.50;;;3.20;;
77117;SDS011;66072;50.238;19.228;2023-04-25T05:46:33;5.40;;;3.40;;
77117;SDS011;66072;50.238;19.228;2023-04-25T05:49:01;6.50;;;3.50;;
77117;SDS011;66072;50.238;19.228;2023-04-25T05:51:29;6.20;;;3.50;;
77117;SDS011;66072;50.238;19.228;2023-04-25T05:53:56;5.70;;;4.00;;
77117;SDS011;66072;50.238;19.228;2023-04-25T05:56:24;6.00;;;4.10;;
77117;SDS011;66072;50.238;19.228;2023-04-25T05:58:51;4.50;;;2.90;;
77117;SDS011;66072;50.238;19.228;2023-04-25T06:01:19;5.00;;;2.60;;
77117;SDS011;66072;50.238;19.228;2023-04-25T06:03:47;5.20;;;3.20;;
77117;SDS011;66072;50.238;19.228;2023-04-25T06:06:15;4.30;;;3.10;;
77117;SDS011;66072;50.238;19.228;2023-04-25T06:08:42;5.00;;;3.50;;
77117;SDS011;66072;50.238;19.228;2023-04-25T06:11:10;4.40;;;3.10;;
77117;SDS011;66072;50.238;19.228;2023-04-25T06:13:38;6.20;;;4.50;;
77117;SDS011;66072;50.238;19.228;2023-04-25T06:16:06;4.10;;;2.70;;
77117;SDS011;66072;50.238;19.228;2023-04-25T06:18:34;5.40;;;4.20;;
77117;SDS011;66072;50.238;19.228;2023-04-25T06:21:01;5.30;;;3.30;;
77117;SDS011;66072;50.238;19.228;2023-04-25T06:23:29;4.50;;;3.20;;
77117;SDS011;66072;50.238;19.228;2023-04-25T06:25:56;4.90;;;3.50;;
77117;SDS011;66072;50.238;19.228;2023-04-25T06:28:24;4.60;;;3.00;;
77117;SDS011;66072;50.238;19.228;2023-04-25T06:30:51;5.70;;;2.90;;
77117;SDS011;66072;50.238;19.228;2023-04-25T06:33:19;5.80;;;3.70;;
77117;SDS011;66072;50.238;19.228;2023-04-25T06:35:47;3.80;;;2.40;;
77117;SDS011;66072;50.238;19.228;2023-04-25T06:38:15;5.00;;;3.20;;
77117;SDS011;66072;50.238;19.228;2023-04-25T06:40:42;4.00;;;1.60;;
77117;SDS011;66072;50.238;19.228;2023-04-25T06:43:10;3.60;;;2.20;;
77117;SDS011;66072;50.238;19.228;2023-04-25T06:45:37;5.30;;;2.90;;
77117;SDS011;66072;50.238;19.228;2023-04-25T06:48:05;5.30;;;2.80;;
77117;SDS011;66072;50.238;19.228;2023-04-25T06:50:33;5.00;;;2.40;;
77117;SDS011;66072;50.238;19.228;2023-04-25T06:53:01;3.60;;;2.20;;
77117;SDS011;66072;50.238;19.228;2023-04-25T06:55:28;5.20;;;3.20;;
77117;SDS011;66072;50.238;19.228;2023-04-25T06:57:56;5.40;;;2.90;;
77117;SDS011;66072;50.238;19.228;2023-04-25T07:00:23;5.20;;;2.80;;
77117;SDS011;66072;50.238;19.228;2023-04-25T07:02:51;5.00;;;3.20;;
77117;SDS011;66072;50.238;19.228;2023-04-25T07:05:19;5.70;;;3.60;;
77117;SDS011;66072;50.238;19.228;2023-04-25T07:07:46;5.20;;;3.50;;
77117;SDS011;66072;50.238;19.228;2023-04-25T07:10:14;4.80;;;3.20;;
77117;SDS011;66072;50.238;19.228;2023-04-25T07:12:41;7.20;;;4.10;;
77117;SDS011;66072;50.238;19.228;2023-04-25T07:15:09;7.10;;;3.50;;
77117;SDS011;66072;50.238;19.228;2023-04-25T07:17:37;6.40;;;3.60;;
77117;SDS011;66072;50.238;19.228;2023-04-25T07:20:05;4.00;;;2.60;;
77117;SDS011;66072;50.238;19.228;2023-04-25T07:22:33;5.50;;;3.60;;
77117;SDS011;66072;50.238;19.228;2023-04-25T07:25:01;4.70;;;2.20;;
77117;SDS011;66072;50.238;19.228;2023-04-25T07:27:29;4.50;;;2.80;;
77117;SDS011;66072;50.238;19.228;2023-04-25T07:29:56;5.40;;;3.60;;
77117;SDS011;66072;50.238;19.228;2023-04-25T07:32:25;4.10;;;2.40;;
77117;SDS011;66072;50.238;19.228;2023-04-25T07:34:53;5.20;;;3.00;;
77117;SDS011;66072;50.238;19.228;2023-04-25T07:37:21;4.70;;;2.90;;
77117;SDS011;66072;50.238;19.228;2023-04-25T07:39:48;5.70;;;3.60;;
77117;SDS011;66072;50.238;19.228;2023-04-25T07:42:16;6.00;;;3.50;;
77117;SDS011;66072;50.238;19.228;2023-04-25T07:44:43;5.60;;;3.60;;
77117;SDS011;66072;50.238;19.228;2023-04-25T07:47:11;4.60;;;3.50;;
77117;SDS011;66072;50.238;19.228;2023-04-25T07:49:39;5.60;;;3.10;;
77117;SDS011;66072;50.238;19.228;2023-04-25T07:52:06;5.80;;;3.70;;
77117;SDS011;66072;50.238;19.228;2023-04-25T07:54:34;6.20;;;4.00;;
77117;SDS011;66072;50.238;19.228;2023-04-25T07:57:02;4.40;;;2.40;;
77117;SDS011;66072;50.238;19.228;2023-04-25T07:59:29;7.10;;;3.50;;
77117;SDS011;66072;50.238;19.228;2023-04-25T08:01:57;6.80;;;4.20;;
77117;SDS011;66072;50.238;19.228;2023-04-25T08:04:25;4.80;;;3.40;;
77117;SDS011;66072;50.238;19.228;2023-04-25T08:06:53;7.50;;;4.20;;
77117;SDS011;66072;50.238;19.228;2023-04-25T08:09:20;5.80;;;3.00;;
77117;SDS011;66072;50.238;19.228;2023-04-25T08:11:48;6.60;;;4.20;;
77117;SDS011;66072;50.238;19.228;2023-04-25T08:14:16;6.90;;;4.40;;
77117;SDS011;66072;50.238;19.228;2023-04-25T08:16:44;6.10;;;4.00;;
77117;SDS011;66072;50.238;19.228;2023-04-25T08:19:11;5.70;;;3.90;;
77117;SDS011;66072;50.238;19.228;2023-04-25T08:21:39;6.80;;;4.10;;
77117;SDS011;66072;50.238;19.228;2023-04-25T08:24:07;7.90;;;3.70;;
77117;SDS011;66072;50.238;19.228;2023-04-25T08:26:34;7.30;;;3.70;;
77117;SDS011;66072;50.238;19.228;2023-04-25T08:29:02;5.20;;;2.50;;
77117;SDS011;66072;50.238;19.228;2023-04-25T08:31:30;6.20;;;3.70;;
77117;SDS011;66072;50.238;19.228;2023-04-25T08:33:57;5.30;;;4.10;;
77117;SDS011;66072;50.238;19.228;2023-04-25T08:36:25;5.60;;;3.70;;
77117;SDS011;66072;50.238;19.228;2023-04-25T08:39:05;5.40;;;3.30;;
77117;SDS011;66072;50.238;19.228;2023-04-25T08:41:33;5.50;;;3.40;;
77117;SDS011;66072;50.238;19.228;2023-04-25T08:44:01;5.70;;;4.00;;
77117;SDS011;66072;50.238;19.228;2023-04-25T08:46:30;5.60;;;3.50;;
77117;SDS011;66072;50.238;19.228;2023-04-25T08:49:00;6.40;;;3.60;;
77117;SDS011;66072;50.238;19.228;2023-04-25T08:51:31;5.70;;;3.10;;
77117;SDS011;66072;50.238;19.228;2023-04-25T08:54:09;6.80;;;3.70;;
77117;SDS011;66072;50.238;19.228;2023-04-25T08:56:45;5.80;;;4.10;;
77117;SDS011;66072;50.238;19.228;2023-04-25T08:59:15;3.70;;;2.60;;
77117;SDS011;66072;50.238;19.228;2023-04-25T09:01:42;7.60;;;3.00;;
77117;SDS011;66072;50.238;19.228;2023-04-25T09:04:11;5.60;;;3.10;;
77117;SDS011;66072;50.238;19.228;2023-04-25T09:06:39;6.40;;;3.50;;
77117;SDS011;66072;50.238;19.228;2023-04-25T09:09:08;4.90;;;3.00;;
77117;SDS011;66072;50.238;19.228;2023-04-25T09:11:36;6.20;;;4.20;;
77117;SDS011;66072;50.238;19.228;2023-04-25T09:19:26;6.40;;;4.20;;
77117;SDS011;66072;50.238;19.228;2023-04-25T09:22:08;4.20;;;2.50;;
77117;SDS011;66072;50.238;19.228;2023-04-25T09:24:39;5.60;;;3.30;;
77117;SDS011;66072;50.238;19.228;2023-04-25T09:27:09;4.00;;;2.60;;
77117;SDS011;66072;50.238;19.228;2023-04-25T09:29:38;3.80;;;2.50;;
77117;SDS011;66072;50.238;19.228;2023-04-25T09:32:11;6.20;;;4.00;;
77117;SDS011;66072;50.238;19.228;2023-04-25T09:34:42;5.30;;;3.40;;
77117;SDS011;66072;50.238;19.228;2023-04-25T09:37:11;3.60;;;2.60;;
77117;SDS011;66072;50.238;19.228;2023-04-25T09:39:39;4.30;;;2.80;;
77117;SDS011;66072;50.238;19.228;2023-04-25T09:42:07;4.70;;;2.50;;
77117;SDS011;66072;50.238;19.228;2023-04-25T09:44:36;4.20;;;2.60;;
77117;SDS011;66072;50.238;19.228;2023-04-25T09:47:04;4.10;;;2.50;;
77117;SDS011;66072;50.238;19.228;2023-04-25T09:49:38;3.80;;;2.20;;
77117;SDS011;66072;50.238;19.228;2023-04-25T09:52:07;3.10;;;1.90;;
77117;SDS011;66072;50.238;19.228;2023-04-25T09:54:36;4.60;;;2.60;;
77117;SDS011;66072;50.238;19.228;2023-04-25T09:57:09;7.10;;;3.20;;
77117;SDS011;66072;50.238;19.228;2023-04-25T09:59:51;4.60;;;2.00;;
77117;SDS011;66072;50.238;19.228;2023-04-25T10:02:23;4.20;;;2.30;;
77117;SDS011;66072;50.238;19.228;2023-04-25T10:04:54;3.60;;;2.50;;
77117;SDS011;66072;50.238;19.228;2023-04-25T10:09:54;3.30;;;2.00;;
77117;SDS011;66072;50.238;19.228;2023-04-25T10:12:26;5.50;;;3.20;;
77117;SDS011;66072;50.238;19.228;2023-04-25T10:14:54;7.00;;;3.40;;
77117;SDS011;66072;50.238;19.228;2023-04-25T10:17:22;3.60;;;2.10;;
77117;SDS011;66072;50.238;19.228;2023-04-25T10:19:50;5.10;;;2.90;;
77117;SDS011;66072;50.238;19.228;2023-04-25T10:22:20;3.90;;;2.90;;
77117;SDS011;66072;50.238;19.228;2023-04-25T10:24:56;4.70;;;2.70;;
77117;SDS011;66072;50.238;19.228;2023-04-25T10:27:25;4.30;;;2.70;;
77117;SDS011;66072;50.238;19.228;2023-04-25T10:32:35;4.00;;;2.40;;
77117;SDS011;66072;50.238;19.228;2023-04-25T10:35:13;4.00;;;2.10;;
77117;SDS011;66072;50.238;19.228;2023-04-25T10:38:02;5.00;;;2.70;;
77117;SDS011;66072;50.238;19.228;2023-04-25T10:40:32;4.60;;;3.00;;
77117;SDS011;66072;50.238;19.228;2023-04-25T10:46:23;3.80;;;2.30;;
77117;SDS011;66072;50.238;19.228;2023-04-25T10:48:53;4.30;;;2.20;;
77117;SDS011;66072;50.238;19.228;2023-04-25T10:51:22;4.70;;;2.60;;
77117;SDS011;66072;50.238;19.228;2023-04-25T10:56:22;3.80;;;2.20;;
77117;SDS011;66072;50.238;19.228;2023-04-25T10:58:57;3.80;;;2.20;;
77117;SDS011;66072;50.238;19.228;2023-04-25T11:01:35;4.00;;;2.20;;
77117;SDS011;66072;50.238;19.228;2023-04-25T11:04:19;3.90;;;2.20;;
77117;SDS011;66072;50.238;19.228;2023-04-25T11:09:47;3.90;;;2.80;;
77117;SDS011;66072;50.238;19.228;2023-04-25T11:12:15;3.50;;;2.40;;
77117;SDS011;66072;50.238;19.228;2023-04-25T11:14:43;4.70;;;2.60;;
77117;SDS011;66072;50.238;19.228;2023-04-25T11:17:11;5.10;;;2.20;;
77117;SDS011;66072;50.238;19.228;2023-04-25T11:19:39;2.90;;;1.90;;
77117;SDS011;66072;50.238;19.228;2023-04-25T11:22:06;4.60;;;2.20;;
77117;SDS011;66072;50.238;19.228;2023-04-25T11:24:34;4.80;;;2.80;;
77117;SDS011;66072;50.238;19.228;2023-04-25T11:27:03;3.40;;;2.10;;
77117;SDS011;66072;50.238;19.228;2023-04-25T11:29:32;5.40;;;2.60;;
77117;SDS011;66072;50.238;19.228;2023-04-25T11:32:01;3.00;;;1.60;;
77117;SDS011;66072;50.238;19.228;2023-04-25T11:34:29;5.20;;;2.60;;
77117;SDS011;66072;50.238;19.228;2023-04-25T11:36:59;3.80;;;2.00;;
77117;SDS011;66072;50.238;19.228;2023-04-25T11:39:27;3.10;;;2.00;;
77117;SDS011;66072;50.238;19.228;2023-04-25T11:41:56;3.80;;;2.00;;
77117;SDS011;66072;50.238;19.228;2023-04-25T11:44:23;3.20;;;1.80;;
77117;SDS011;66072;50.238;19.228;2023-04-25T11:46:51;4.60;;;2.10;;
77117;SDS011;66072;50.238;19.228;2023-04-25T11:49:19;3.90;;;2.20;;
77117;SDS011;66072;50.238;19.228;2023-04-25T11:51:47;3.60;;;2.40;;
77117;SDS011;66072;50.238;19.228;2023-04-25T11:54:15;4.50;;;2.70;;
77117;SDS011;66072;50.238;19.228;2023-04-25T11:56:44;4.40;;;2.00;;
77117;SDS011;66072;50.238;19.228;2023-04-25T11:59:12;4.10;;;2.20;;
77117;SDS011;66072;50.238;19.228;2023-04-25T12:01:41;2.90;;;1.80;;
77117;SDS011;66072;50.238;19.228;2023-04-25T12:04:18;2.60;;;1.40;;
77117;SDS011;66072;50.238;19.228;2023-04-25T12:06:52;4.40;;;2.50;;
77117;SDS011;66072;50.238;19.228;2023-04-25T12:09:21;3.50;;;2.40;;
77117;SDS011;66072;50.238;19.228;2023-04-25T12:11:56;4.10;;;2.00;;
77117;SDS011;66072;50.238;19.228;2023-04-25T12:14:26;4.80;;;2.30;;
77117;SDS011;66072;50.238;19.228;2023-04-25T12:16:56;4.40;;;2.20;;
77117;SDS011;66072;50.238;19.228;2023-04-25T12:21:53;4.00;;;2.00;;
77117;SDS011;66072;50.238;19.228;2023-04-25T12:24:26;3.90;;;2.10;;
77117;SDS011;66072;50.238;19.228;2023-04-25T12:29:32;4.00;;;2.40;;
77117;SDS011;66072;50.238;19.228;2023-04-25T12:32:16;4.40;;;2.10;;
77117;SDS011;66072;50.238;19.228;2023-04-25T12:34:43;4.20;;;2.00;;
77117;SDS011;66072;50.238;19.228;2023-04-25T12:37:11;4.40;;;1.70;;
77117;SDS011;66072;50.238;19.228;2023-04-25T12:39:39;4.10;;;2.00;;
77117;SDS011;66072;50.238;19.228;2023-04-25T12:42:07;3.90;;;2.00;;
77117;SDS011;66072;50.238;19.228;2023-04-25T12:44:36;4.50;;;2.10;;
77117;SDS011;66072;50.238;19.228;2023-04-25T12:47:04;3.80;;;2.30;;
77117;SDS011;66072;50.238;19.228;2023-04-25T12:49:31;3.40;;;2.10;;
77117;SDS011;66072;50.238;19.228;2023-04-25T12:51:59;3.90;;;2.30;;
77117;SDS011;66072;50.238;19.228;2023-04-25T12:54:27;3.70;;;2.00;;
77117;SDS011;66072;50.238;19.228;2023-04-25T12:56:54;3.30;;;2.10;;
77117;SDS011;66072;50.238;19.228;2023-04-25T12:59:22;4.60;;;2.50;;
77117;SDS011;66072;50.238;19.228;2023-04-25T13:01:49;3.90;;;2.10;;
77117;SDS011;66072;50.238;19.228;2023-04-25T13:04:17;3.40;;;1.80;;
77117;SDS011;66072;50.238;19.228;2023-04-25T13:06:45;3.70;;;2.10;;
77117;SDS011;66072;50.238;19.228;2023-04-25T13:09:13;4.00;;;2.20;;
77117;SDS011;66072;50.238;19.228;2023-04-25T13:11:40;3.30;;;1.80;;
77117;SDS011;66072;50.238;19.228;2023-04-25T13:14:08;3.70;;;2.10;;
77117;SDS011;66072;50.238;19.228;2023-04-25T13:16:36;3.70;;;1.90;;
77117;SDS011;66072;50.238;19.228;2023-04-25T13:19:03;3.00;;;1.60;;
77117;SDS011;66072;50.238;19.228;2023-04-25T13:21:31;4.30;;;2.20;;
77117;SDS011;66072;50.238;19.228;2023-04-25T13:23:59;5.90;;;2.40;;
77117;SDS011;66072;50.238;19.228;2023-04-25T13:26:26;5.40;;;2.80;;
77117;SDS011;66072;50.238;19.228;2023-04-25T13:28:54;5.30;;;3.30;;
77117;SDS011;66072;50.238;19.228;2023-04-25T13:31:21;5.80;;;2.60;;
77117;SDS011;66072;50.238;19.228;2023-04-25T13:33:49;4.40;;;2.90;;
77117;SDS011;66072;50.238;19.228;2023-04-25T13:36:17;5.40;;;2.50;;
77117;SDS011;66072;50.238;19.228;2023-04-25T13:38:45;3.90;;;2.70;;
77117;SDS011;66072;50.238;19.228;2023-04-25T13:41:13;4.10;;;1.90;;
77117;SDS011;66072;50.238;19.228;2023-04-25T13:43:40;4.10;;;2.90;;
77117;SDS011;66072;50.238;19.228;2023-04-25T13:46:08;5.10;;;3.00;;
77117;SDS011;66072;50.238;19.228;2023-04-25T13:48:51;4.00;;;2.60;;
77117;SDS011;66072;50.238;19.228;2023-04-25T13:51:26;3.60;;;2.40;;
77117;SDS011;66072;50.238;19.228;2023-04-25T13:53:53;5.20;;;2.70;;
77117;SDS011;66072;50.238;19.228;2023-04-25T13:56:21;4.90;;;2.50;;
77117;SDS011;66072;50.238;19.228;2023-04-25T13:58:51;7.10;;;2.80;;
77117;SDS011;66072;50.238;19.228;2023-04-25T14:01:19;4.20;;;3.20;;
77117;SDS011;66072;50.238;19.228;2023-04-25T14:03:47;5.00;;;3.00;;
77117;SDS011;66072;50.238;19.228;2023-04-25T14:06:14;5.90;;;3.00;;
77117;SDS011;66072;50.238;19.228;2023-04-25T14:08:42;3.50;;;2.30;;
77117;SDS011;66072;50.238;19.228;2023-04-25T14:11:09;3.90;;;2.50;;
77117;SDS011;66072;50.238;19.228;2023-04-25T14:13:37;4.40;;;3.00;;
77117;SDS011;66072;50.238;19.228;2023-04-25T14:16:05;5.50;;;3.10;;
77117;SDS011;66072;50.238;19.228;2023-04-25T14:18:32;4.40;;;2.80;;
77117;SDS011;66072;50.238;19.228;2023-04-25T14:21:00;4.00;;;2.20;;
77117;SDS011;66072;50.238;19.228;2023-04-25T14:23:28;3.90;;;2.70;;
77117;SDS011;66072;50.238;19.228;2023-04-25T14:25:55;4.50;;;2.70;;
77117;SDS011;66072;50.238;19.228;2023-04-25T14:28:23;4.70;;;2.80;;
77117;SDS011;66072;50.238;19.228;2023-04-25T14:30:51;5.70;;;2.50;;
77117;SDS011;66072;50.238;19.228;2023-04-25T14:33:18;4.10;;;3.10;;
77117;SDS011;66072;50.238;19.228;2023-04-25T14:35:46;4.10;;;2.80;;
77117;SDS011;66072;50.238;19.228;2023-04-25T14:38:14;4.30;;;2.40;;
77117;SDS011;66072;50.238;19.228;2023-04-25T14:40:41;4.40;;;1.90;;
77117;SDS011;66072;50.238;19.228;2023-04-25T14:43:09;4.20;;;2.50;;
77117;SDS011;66072;50.238;19.228;2023-04-25T14:45:36;5.20;;;2.70;;
77117;SDS011;66072;50.238;19.228;2023-04-25T14:48:04;4.40;;;2.50;;
77117;SDS011;66072;50.238;19.228;2023-04-25T14:50:32;5.70;;;2.90;;
77117;SDS011;66072;50.238;19.228;2023-04-25T14:53:00;4.50;;;2.40;;
77117;SDS011;66072;50.238;19.228;2023-04-25T14:55:27;4.50;;;2.10;;
77117;SDS011;66072;50.238;19.228;2023-04-25T14:57:55;3.90;;;1.50;;
77117;SDS011;66072;50.238;19.228;2023-04-25T15:00:24;4.20;;;3.00;;
77117;SDS011;66072;50.238;19.228;2023-04-25T15:02:51;3.00;;;2.30;;
77117;SDS011;66072;50.238;19.228;2023-04-25T15:05:19;5.40;;;3.30;;